Etusivu
METAR-TAF:

METAR-TAF

Lentoasemat :

Crescent City, Kalifornia, Yhdysvallat

Leveyspiiri: 41-46-49N, Pituuspiiri: 124-14-12W, korkeus merenpinnasta: 17 m

Tämänhetkinen sää

Tämä raportti tehtiin 30 minuuttia sitten, kello 02.14 UTC
Tuuli 7 kn pohjoisesta
Lämpötila 10°C
Kosteus 82%
Ilmanpaine 1018 hPa
Näkyvyys: 4.0 km
selkeää
usvaa

METAR: KCEC 280214Z AUTO 35007KT 2 1/2SM HZ CLR 10/07 A3007 RMK AO2 T01000072

Aika: 19:44 (02:44 UTC)

Sääennuste

Tämä raportti tehtiin 1 tunti ja 2 minuuttia sitten, kello 01.42 UTC
Ennuste voimassa 28. päivästä klo 02 UTC - 28. päivään klo 24 UTC
Tuuli 4 kn pohjoisesta
Näkyvyys: 8.0 km
selkeää
usvaa
From 28. päivästä klo 2000 UTC
Tuuli 6 kn etelästä
Näkyvyys: 10 km
selkeää

TAF: KCEC 280142Z 2802/2824 35004KT 5SM HZ SKC FM282000 19006KT P6SM SKC

Säähavainnot ja -ennusteet yli 4000 lentoasemalta (METAR- ja TAF-raportit).

Käytössä olevat sääasemat on merkitty karttaan keltaisilla ja punaisilla pisteillä.

Aseta hiiri pisteen päälle nähdäksesi sääaseman nimen.

Klikkaa sitten nähdäksesi säähavainnot ja -ennusteet.

Kartan vaihtaminen: klikkaa mustalla rastilla varustettuja vihreitä pisteitä, niin voit zoomata sisään; viivalla varustettua vihreää pistettä, niin voit zoomata ulos tai vihreitä nuolia, niin pääset viereisille kartoille.


METAR-TAF: